NFNA

Nausori International Airport

Nausori, Fiji
METAR NFNA 170700Z 08005KT 9999 -SHRA BKN020 BKN048 23/22 Q1014
Observed Flight Rules
Aug-17 @ 07:00 UTC (15 minutes ago) Marginal Visual Flight Rules
Wind Visibility Clouds Conditions
80° at 5 knots 10,000+ meters
  • Broken at 2,000' AGL
  • Broken at 4,800' AGL
  • Light Rain
Temperatures Readings
Current 23°C / 73°F
Dewpoint 22°C / 72°F
Humidity 94%
Altimeter 29.94" Hg
Pressure 1014 hPa
Elevation 5
METAR NFNA 170700Z 08005KT 9999 -SHRA BKN020 BKN048 23/22 Q1014
Observed Flight Rules
Aug-17 @ 07:00 UTC
(15 minutes ago)
MVFR
Wind Visibility
80° at 5 knots 10,000+ meters
Clouds
  • Broken at 2,000' AGL
  • Broken at 4,800' AGL
Conditions
  • Light Rain
Temperature Dewpoint
23°C / 73°F 22°C / 72°F
Humidity Altimeter Pressure
94% 29.94" Hg 1014 hPa